createdAt,value
2023-01-09T00:00:51.433Z,4.07
2023-01-09T00:03:18.361Z,4.97
2023-01-09T00:05:45.175Z,3.63
2023-01-09T00:08:11.877Z,4.80
2023-01-09T00:10:38.656Z,2.27
2023-01-09T00:13:05.503Z,2.30
2023-01-09T00:15:32.327Z,2.10
2023-01-09T00:17:59.172Z,2.50
2023-01-09T00:20:26.038Z,2.63
2023-01-09T00:22:52.740Z,2.53
2023-01-09T00:25:19.600Z,2.80
2023-01-09T00:27:46.332Z,2.93
2023-01-09T00:30:13.284Z,2.30
2023-01-09T00:32:40.662Z,3.30
2023-01-09T00:35:10.111Z,1.60
2023-01-09T00:37:36.847Z,3.33
2023-01-09T00:40:03.678Z,3.63
2023-01-09T00:42:33.950Z,1.93
2023-01-09T00:45:03.795Z,1.40
2023-01-09T00:47:38.448Z,1.20
2023-01-09T00:50:10.564Z,1.03
2023-01-09T00:52:39.345Z,1.20
2023-01-09T00:55:07.079Z,1.03
2023-01-09T00:57:33.911Z,1.10
2023-01-09T01:00:01.266Z,1.70
2023-01-09T01:02:28.122Z,1.67
2023-01-09T01:05:13.495Z,2.50
2023-01-09T01:07:41.086Z,3.03
2023-01-09T01:10:16.274Z,5.87
2023-01-09T01:12:44.234Z,6.23
2023-01-09T01:15:11.824Z,3.13
2023-01-09T01:17:40.472Z,2.90
2023-01-09T01:20:14.648Z,3.03
2023-01-09T01:22:44.128Z,2.37
2023-01-09T01:25:12.825Z,1.63
2023-01-09T01:27:39.622Z,1.80
2023-01-09T01:30:08.061Z,1.17
2023-01-09T01:32:34.884Z,1.27
2023-01-09T01:35:01.749Z,0.77
2023-01-09T01:37:28.485Z,1.20
2023-01-09T01:39:55.620Z,0.60
2023-01-09T01:42:22.602Z,0.53
2023-01-09T01:45:19.590Z,1.17
2023-01-09T01:48:00.622Z,1.60
2023-01-09T01:50:47.623Z,1.17
2023-01-09T01:53:14.272Z,0.70
2023-01-09T01:56:03.581Z,2.70
2023-01-09T01:58:30.819Z,2.73
2023-01-09T02:00:58.337Z,1.30
2023-01-09T02:03:28.025Z,1.27
2023-01-09T02:05:54.829Z,1.80
2023-01-09T02:08:22.323Z,1.67
2023-01-09T02:10:50.236Z,1.80
2023-01-09T02:13:18.371Z,3.83
2023-01-09T02:16:06.364Z,0.77
2023-01-09T02:19:15.228Z,0.80
2023-01-09T02:22:06.750Z,0.73
2023-01-09T02:24:45.448Z,2.30
2023-01-09T02:27:41.380Z,1.80
2023-01-09T02:30:16.749Z,1.17
2023-01-09T02:33:17.452Z,0.70
2023-01-09T02:36:15.880Z,1.40
2023-01-09T02:38:48.581Z,1.43
2023-01-09T02:41:28.447Z,2.73
2023-01-09T02:44:12.368Z,1.00
2023-01-09T02:46:39.147Z,0.80
2023-01-09T02:49:06.132Z,1.67
2023-01-09T02:51:39.429Z,0.90
2023-01-09T02:54:27.305Z,1.40
2023-01-09T02:57:03.017Z,1.10
2023-01-09T02:59:51.186Z,1.90
2023-01-09T03:02:54.530Z,2.57
2023-01-09T03:05:40.853Z,3.97
2023-01-09T03:08:16.828Z,1.83
2023-01-09T03:11:04.721Z,3.33
2023-01-09T03:13:49.603Z,2.17
2023-01-09T03:16:21.472Z,2.80
2023-01-09T03:18:49.876Z,1.00
2023-01-09T03:21:17.451Z,2.43
2023-01-09T03:23:49.077Z,2.23
2023-01-09T03:26:16.196Z,3.23
2023-01-09T03:28:43.690Z,2.10
2023-01-09T03:31:10.927Z,2.37
2023-01-09T03:33:38.144Z,3.87
2023-01-09T03:36:05.542Z,2.53
2023-01-09T03:38:32.888Z,3.57
2023-01-09T03:41:00.032Z,3.10
2023-01-09T03:43:27.187Z,2.80
2023-01-09T03:45:54.339Z,2.73
2023-01-09T03:48:21.497Z,3.37
2023-01-09T03:50:49.360Z,3.40
2023-01-09T03:53:16.613Z,2.67
2023-01-09T03:55:47.782Z,2.33
2023-01-09T03:58:15.583Z,2.73
2023-01-09T04:00:42.847Z,2.27
2023-01-09T04:03:10.085Z,3.47
2023-01-09T04:05:37.193Z,2.47
2023-01-09T04:08:04.600Z,3.60
2023-01-09T04:10:31.737Z,2.30
2023-01-09T04:12:58.849Z,1.97
2023-01-09T04:15:25.957Z,3.50
2023-01-09T04:17:53.086Z,2.77
2023-01-09T04:20:20.201Z,2.73
2023-01-09T04:22:47.335Z,5.30
2023-01-09T04:25:14.486Z,4.20
2023-01-09T04:27:41.566Z,3.80
2023-01-09T04:30:09.035Z,4.63
2023-01-09T04:32:36.160Z,3.03
2023-01-09T04:35:03.337Z,3.60
2023-01-09T04:37:30.517Z,4.93
2023-01-09T04:39:57.745Z,6.93
2023-01-09T04:42:25.067Z,9.13
2023-01-09T04:44:55.038Z,8.07
2023-01-09T04:47:23.791Z,6.57
2023-01-09T04:49:51.151Z,11.17
2023-01-09T04:52:18.383Z,8.47
2023-01-09T04:54:45.665Z,9.10
2023-01-09T04:57:12.754Z,6.23
2023-01-09T04:59:39.972Z,12.90
2023-01-09T05:02:07.446Z,4.33
2023-01-09T05:04:34.836Z,6.47
2023-01-09T05:07:02.097Z,12.07
2023-01-09T05:09:29.534Z,5.30
2023-01-09T05:11:56.606Z,4.50
2023-01-09T05:14:23.695Z,5.07
2023-01-09T05:16:50.914Z,3.40
2023-01-09T05:19:18.121Z,8.27
2023-01-09T05:21:45.189Z,4.00
2023-01-09T05:24:12.337Z,5.83
2023-01-09T05:26:39.413Z,5.70
2023-01-09T05:29:06.537Z,6.67
2023-01-09T05:31:33.726Z,3.77
2023-01-09T05:34:00.927Z,2.20
2023-01-09T05:36:28.341Z,2.37
2023-01-09T05:38:57.885Z,4.67
2023-01-09T05:41:26.255Z,5.90
2023-01-09T05:43:53.444Z,2.70
2023-01-09T05:46:20.592Z,1.57
2023-01-09T05:48:47.733Z,2.63
2023-01-09T05:51:14.891Z,4.33
2023-01-09T05:53:42.015Z,6.10
2023-01-09T05:56:10.774Z,2.20
2023-01-09T05:58:38.830Z,3.30
2023-01-09T06:01:06.098Z,4.97
2023-01-09T06:03:33.216Z,4.77
2023-01-09T06:06:00.409Z,4.77
2023-01-09T06:08:27.558Z,1.73
2023-01-09T06:10:54.687Z,3.57
2023-01-09T06:13:21.986Z,5.10
2023-01-09T06:15:49.414Z,2.70
2023-01-09T06:18:17.064Z,6.07
2023-01-09T06:20:45.957Z,4.07
2023-01-09T06:23:13.740Z,2.90
2023-01-09T06:25:40.997Z,3.63
2023-01-09T06:28:08.308Z,6.10
2023-01-09T06:30:35.714Z,5.67
2023-01-09T06:33:03.064Z,7.73
2023-01-09T06:35:30.310Z,6.67
2023-01-09T06:37:58.445Z,7.30
2023-01-09T06:40:25.634Z,3.07
2023-01-09T06:42:52.719Z,3.37
2023-01-09T06:45:19.961Z,6.87
2023-01-09T06:47:47.331Z,7.30
2023-01-09T06:50:14.659Z,2.10
2023-01-09T06:52:41.806Z,5.33
2023-01-09T06:55:09.286Z,5.63
2023-01-09T06:57:36.607Z,4.83
2023-01-09T07:00:04.557Z,2.40
2023-01-09T07:02:31.718Z,5.50
2023-01-09T07:04:58.877Z,3.47
2023-01-09T07:07:26.159Z,6.80
2023-01-09T07:09:53.276Z,3.00
2023-01-09T07:12:20.436Z,4.10
2023-01-09T07:14:47.536Z,7.07
2023-01-09T07:17:15.075Z,3.30
2023-01-09T07:19:42.225Z,4.80
2023-01-09T07:22:09.449Z,5.70
2023-01-09T07:24:36.691Z,4.03
2023-01-09T07:27:03.883Z,3.50
2023-01-09T07:29:31.361Z,4.67
2023-01-09T07:31:58.485Z,6.43
2023-01-09T07:34:25.629Z,5.13
2023-01-09T07:36:52.722Z,5.50
2023-01-09T07:39:19.935Z,4.47
2023-01-09T07:41:50.178Z,6.90
2023-01-09T07:44:17.423Z,2.57
2023-01-09T07:46:44.591Z,5.20
2023-01-09T07:49:11.891Z,6.70
2023-01-09T07:51:43.278Z,7.40
2023-01-09T07:54:11.112Z,3.97
2023-01-09T07:56:38.343Z,3.83
2023-01-09T07:59:05.468Z,5.40
2023-01-09T08:01:32.704Z,6.93
2023-01-09T08:03:59.869Z,3.30
2023-01-09T08:06:26.989Z,9.13
2023-01-09T08:08:54.059Z,4.03
2023-01-09T08:11:21.206Z,5.57
2023-01-09T08:13:48.508Z,5.87
2023-01-09T08:16:16.078Z,4.13
2023-01-09T08:18:43.411Z,4.57
2023-01-09T08:21:14.396Z,4.23
2023-01-09T08:23:41.570Z,7.03
2023-01-09T08:26:08.847Z,6.30
2023-01-09T08:28:35.945Z,6.43
2023-01-09T08:31:03.401Z,2.83
2023-01-09T08:33:30.654Z,6.27
2023-01-09T08:35:57.781Z,7.40
2023-01-09T08:38:26.569Z,5.03
2023-01-09T08:40:53.744Z,7.03
2023-01-09T08:43:39.566Z,5.70
2023-01-09T08:46:25.707Z,4.93
2023-01-09T08:48:52.804Z,5.37
2023-01-09T08:51:19.882Z,5.87
2023-01-09T08:53:47.049Z,10.33
2023-01-09T08:56:14.245Z,10.33
2023-01-09T08:58:41.401Z,8.13
2023-01-09T09:01:08.621Z,10.40
2023-01-09T09:03:35.752Z,8.43
2023-01-09T09:06:02.971Z,8.73
2023-01-09T09:08:30.351Z,8.23
2023-01-09T09:10:57.632Z,12.67
2023-01-09T09:13:24.760Z,7.90
2023-01-09T09:15:51.982Z,6.10
2023-01-09T09:18:19.222Z,6.87
2023-01-09T09:20:46.509Z,6.77
2023-01-09T09:23:13.658Z,7.07
2023-01-09T09:25:40.835Z,8.67
2023-01-09T09:28:08.398Z,6.00
2023-01-09T09:30:35.577Z,7.70
2023-01-09T09:33:05.915Z,9.70
2023-01-09T09:35:34.071Z,5.37
2023-01-09T09:38:05.013Z,6.40
2023-01-09T09:40:43.457Z,6.80
2023-01-09T09:43:48.536Z,4.17
2023-01-09T09:46:15.750Z,6.70
2023-01-09T09:48:47.573Z,17.70
2023-01-09T09:51:23.892Z,5.37
2023-01-09T09:53:59.871Z,1.97
2023-01-09T09:56:28.192Z,7.63
2023-01-09T09:58:58.026Z,6.47
2023-01-09T10:01:31.787Z,6.17
2023-01-09T10:04:00.863Z,5.10
2023-01-09T10:06:31.249Z,5.53
2023-01-09T10:09:19.962Z,3.50
2023-01-09T10:12:09.482Z,3.07
2023-01-09T10:14:36.634Z,5.53
2023-01-09T10:17:22.741Z,2.23
2023-01-09T10:19:56.125Z,3.00
2023-01-09T10:22:41.290Z,6.60
2023-01-09T10:25:11.473Z,7.27
2023-01-09T10:28:02.086Z,4.03
2023-01-09T10:30:29.170Z,1.97
2023-01-09T10:33:01.514Z,6.20
2023-01-09T10:35:47.265Z,4.00
2023-01-09T10:38:19.339Z,5.67
2023-01-09T10:40:51.113Z,4.40
2023-01-09T10:43:29.080Z,3.63
2023-01-09T10:45:58.640Z,6.03
2023-01-09T10:48:36.708Z,5.80
2023-01-09T10:51:10.661Z,4.37
2023-01-09T10:53:40.088Z,5.90
2023-01-09T10:56:18.903Z,6.57
2023-01-09T10:58:46.079Z,5.87
2023-01-09T11:01:13.501Z,5.03
2023-01-09T11:03:41.134Z,3.20
2023-01-09T11:06:21.478Z,5.63
2023-01-09T11:08:50.711Z,4.30
2023-01-09T11:11:34.826Z,4.83
2023-01-09T11:14:14.907Z,9.70
2023-01-09T11:16:51.784Z,5.33
2023-01-09T11:19:18.942Z,6.20
2023-01-09T11:21:46.141Z,2.97
2023-01-09T11:24:19.156Z,5.17
2023-01-09T11:26:47.080Z,7.80
2023-01-09T11:29:19.153Z,2.03
2023-01-09T11:31:56.431Z,4.33
2023-01-09T11:34:24.809Z,2.93
2023-01-09T11:36:53.501Z,4.23
2023-01-09T11:39:27.729Z,3.77
2023-01-09T11:41:56.562Z,6.10
2023-01-09T11:44:24.081Z,7.47
2023-01-09T11:46:51.367Z,7.37
2023-01-09T11:49:19.708Z,4.43
2023-01-09T11:51:47.113Z,3.77
2023-01-09T11:54:14.230Z,6.77
2023-01-09T11:56:41.690Z,6.50
2023-01-09T11:59:17.413Z,4.33
2023-01-09T12:01:53.864Z,6.93
2023-01-09T12:04:28.835Z,9.40
2023-01-09T12:06:58.839Z,5.97
2023-01-09T12:10:04.642Z,6.97
2023-01-09T12:12:37.858Z,6.97
2023-01-09T12:15:17.131Z,7.80
2023-01-09T12:17:44.246Z,6.23
2023-01-09T12:20:29.580Z,7.63
2023-01-09T12:22:57.413Z,9.40
2023-01-09T12:25:43.513Z,5.43
2023-01-09T12:28:29.543Z,6.90
2023-01-09T12:30:59.673Z,5.47
2023-01-09T12:33:37.610Z,6.00
2023-01-09T12:36:13.806Z,6.10
2023-01-09T12:38:48.027Z,9.00
2023-01-09T12:41:34.084Z,6.63
2023-01-09T12:44:34.278Z,2.90
2023-01-09T12:47:05.467Z,3.90
2023-01-09T12:49:59.777Z,6.37
2023-01-09T12:52:29.779Z,3.63
2023-01-09T12:55:08.397Z,2.27
2023-01-09T12:57:37.868Z,4.17
2023-01-09T13:00:08.286Z,4.40
2023-01-09T13:02:40.159Z,3.93
2023-01-09T13:05:15.791Z,9.23
2023-01-09T13:07:45.835Z,7.10
2023-01-09T13:10:17.190Z,4.53
2023-01-09T13:12:47.036Z,3.20
2023-01-09T13:15:26.103Z,5.20
2023-01-09T13:18:00.694Z,11.43
2023-01-09T13:20:44.896Z,2.27
2023-01-09T13:23:23.130Z,4.47
2023-01-09T13:25:52.932Z,3.13
2023-01-09T13:28:25.092Z,2.97
2023-01-09T13:30:56.067Z,6.20
2023-01-09T13:33:24.011Z,5.27
2023-01-09T13:35:55.991Z,5.17
2023-01-09T13:38:24.537Z,5.80
2023-01-09T13:41:27.785Z,10.53
2023-01-09T13:43:55.096Z,3.53
2023-01-09T13:46:22.435Z,8.87
2023-01-09T13:48:49.555Z,5.80
2023-01-09T13:51:35.744Z,7.37
2023-01-09T13:54:03.017Z,5.50
2023-01-09T13:56:30.140Z,4.13
2023-01-09T13:58:59.029Z,7.20
2023-01-09T14:01:36.093Z,11.43
2023-01-09T14:04:14.659Z,4.30
2023-01-09T14:06:44.912Z,5.23
2023-01-09T14:09:18.217Z,4.53
2023-01-09T14:11:46.225Z,3.70
2023-01-09T14:14:33.175Z,3.93
2023-01-09T14:17:03.241Z,3.30
2023-01-09T14:19:30.379Z,4.97
2023-01-09T14:21:58.086Z,4.87
2023-01-09T14:24:34.317Z,6.17
2023-01-09T14:27:01.919Z,7.00
2023-01-09T14:29:32.194Z,3.20
2023-01-09T14:32:18.440Z,5.30
2023-01-09T14:34:46.960Z,6.30
2023-01-09T14:37:14.786Z,5.47
2023-01-09T14:39:45.023Z,3.50
2023-01-09T14:42:15.875Z,7.20
2023-01-09T14:44:49.190Z,6.13
2023-01-09T14:47:31.716Z,5.50
2023-01-09T14:49:58.941Z,5.73
2023-01-09T14:52:30.961Z,7.90
2023-01-09T14:55:02.463Z,5.03
2023-01-09T14:57:31.097Z,3.47
2023-01-09T15:00:00.962Z,4.20
2023-01-09T15:02:33.066Z,5.63
2023-01-09T15:05:06.449Z,5.50
2023-01-09T15:07:40.482Z,6.50
2023-01-09T15:10:08.110Z,4.40
2023-01-09T15:12:35.749Z,10.13
2023-01-09T15:15:04.739Z,5.10
2023-01-09T15:17:34.512Z,7.13
2023-01-09T15:20:03.395Z,6.00
2023-01-09T15:22:35.238Z,4.40
2023-01-09T15:25:27.328Z,6.60
2023-01-09T15:27:57.786Z,8.00
2023-01-09T15:30:25.279Z,8.63
2023-01-09T15:32:52.730Z,5.03
2023-01-09T15:35:20.457Z,2.83
2023-01-09T15:37:47.679Z,5.13
2023-01-09T15:40:34.778Z,3.47
2023-01-09T15:43:02.423Z,6.27
2023-01-09T15:45:35.190Z,4.83
2023-01-09T15:48:16.389Z,3.30
2023-01-09T15:50:44.160Z,5.53
2023-01-09T15:53:30.391Z,5.67
2023-01-09T15:56:12.971Z,5.00
2023-01-09T15:58:41.010Z,6.90
2023-01-09T16:01:08.306Z,6.70
2023-01-09T16:03:39.402Z,4.63
2023-01-09T16:06:11.236Z,5.63
2023-01-09T16:08:43.296Z,4.50
2023-01-09T16:11:20.721Z,7.53
2023-01-09T16:13:47.933Z,6.37
2023-01-09T16:16:23.385Z,10.43
2023-01-09T16:18:52.062Z,6.80
2023-01-09T16:21:38.293Z,8.50
2023-01-09T16:24:14.624Z,7.47
2023-01-09T16:26:41.734Z,6.50
2023-01-09T16:29:28.582Z,6.83
2023-01-09T16:31:59.827Z,8.53
2023-01-09T16:34:27.384Z,9.60
2023-01-09T16:36:54.800Z,6.30
2023-01-09T16:39:22.149Z,6.73
2023-01-09T16:42:08.299Z,9.00
2023-01-09T16:44:35.612Z,12.17
2023-01-09T16:47:02.995Z,8.30
2023-01-09T16:49:30.123Z,6.37
2023-01-09T16:51:57.404Z,8.30
2023-01-09T16:54:24.517Z,8.00
2023-01-09T16:56:53.433Z,6.40
2023-01-09T16:59:24.513Z,7.63
2023-01-09T17:01:52.438Z,5.57
2023-01-09T17:04:24.102Z,8.00
2023-01-09T17:06:51.304Z,9.33
2023-01-09T17:09:20.047Z,11.43
2023-01-09T17:11:47.162Z,9.20
2023-01-09T17:14:14.603Z,9.90
2023-01-09T17:16:48.327Z,14.93
2023-01-09T17:19:20.747Z,11.70
2023-01-09T17:21:48.046Z,14.70
2023-01-09T17:24:34.304Z,10.93
2023-01-09T17:27:21.061Z,13.63
2023-01-09T17:29:48.648Z,8.53
2023-01-09T17:32:19.183Z,8.37
2023-01-09T17:34:46.328Z,7.23
2023-01-09T17:37:17.393Z,7.30
2023-01-09T17:39:45.132Z,8.57
2023-01-09T17:42:12.610Z,12.57
2023-01-09T17:44:39.758Z,11.00
2023-01-09T17:47:07.279Z,7.57
2023-01-09T17:49:34.599Z,5.33
2023-01-09T17:52:01.710Z,10.60
2023-01-09T17:54:28.879Z,9.03
2023-01-09T17:56:56.075Z,9.80
2023-01-09T17:59:23.228Z,9.70
2023-01-09T18:01:50.419Z,9.47
2023-01-09T18:04:17.639Z,17.17
2023-01-09T18:06:44.929Z,11.07
2023-01-09T18:09:15.696Z,26.57
2023-01-09T18:11:43.863Z,14.77
2023-01-09T18:14:13.423Z,9.70
2023-01-09T18:16:40.926Z,11.20
2023-01-09T18:19:08.121Z,8.87
2023-01-09T18:21:35.209Z,14.13
2023-01-09T18:24:02.761Z,15.13
2023-01-09T18:26:30.086Z,11.23
2023-01-09T18:28:58.383Z,14.80
2023-01-09T18:31:27.312Z,15.63
2023-01-09T18:34:01.303Z,19.60
2023-01-09T18:36:31.905Z,18.03
2023-01-09T18:39:00.502Z,14.70
2023-01-09T18:41:28.072Z,16.53
2023-01-09T18:43:56.717Z,23.77
2023-01-09T18:46:24.736Z,14.63
2023-01-09T18:48:53.116Z,12.80
2023-01-09T18:51:20.470Z,13.30
2023-01-09T18:53:47.678Z,22.80
2023-01-09T18:56:14.843Z,19.10
2023-01-09T18:58:42.021Z,11.60
2023-01-09T19:01:09.624Z,14.03
2023-01-09T19:03:36.819Z,17.43
2023-01-09T19:06:04.639Z,15.17
2023-01-09T19:08:32.276Z,14.33
2023-01-09T19:10:59.779Z,15.00
2023-01-09T19:13:30.007Z,13.70
2023-01-09T19:15:58.113Z,13.33
2023-01-09T19:18:25.713Z,17.10
2023-01-09T19:20:53.488Z,13.03
2023-01-09T19:23:24.471Z,9.27
2023-01-09T19:25:52.156Z,11.60
2023-01-09T19:28:19.910Z,12.83
2023-01-09T19:30:47.109Z,11.17
2023-01-09T19:33:14.549Z,12.60
2023-01-09T19:35:41.716Z,12.27
2023-01-09T19:38:08.850Z,14.27
2023-01-09T19:40:36.617Z,11.53
2023-01-09T19:43:03.738Z,13.80
2023-01-09T19:45:30.845Z,10.07
2023-01-09T19:47:58.011Z,16.47
2023-01-09T19:50:25.110Z,10.23
2023-01-09T19:52:52.267Z,15.60
2023-01-09T19:55:19.382Z,15.53
2023-01-09T19:57:46.746Z,13.00
2023-01-09T20:00:14.750Z,16.77
2023-01-09T20:02:42.115Z,14.73
2023-01-09T20:05:10.184Z,13.23
2023-01-09T20:07:37.312Z,16.97
2023-01-09T20:10:04.677Z,15.10
2023-01-09T20:12:32.440Z,12.20
2023-01-09T20:14:59.715Z,17.57
2023-01-09T20:17:26.888Z,15.20
2023-01-09T20:19:53.980Z,20.33
2023-01-09T20:22:21.242Z,12.33
2023-01-09T20:24:48.415Z,9.50
2023-01-09T20:27:15.529Z,16.50
2023-01-09T20:29:42.686Z,9.87
2023-01-09T20:32:10.399Z,11.57
2023-01-09T20:34:37.575Z,20.40
2023-01-09T20:37:04.765Z,14.00
2023-01-09T20:39:37.600Z,10.77
2023-01-09T20:42:04.963Z,16.10
2023-01-09T20:44:32.113Z,13.93
2023-01-09T20:46:59.228Z,13.63
2023-01-09T20:49:26.367Z,13.60
2023-01-09T20:51:53.623Z,12.33
2023-01-09T20:54:21.750Z,11.27
2023-01-09T20:56:49.285Z,14.83
2023-01-09T20:59:17.573Z,12.50
2023-01-09T21:01:44.758Z,15.50
2023-01-09T21:04:11.933Z,15.50
2023-01-09T21:06:39.125Z,18.50
2023-01-09T21:09:06.533Z,12.67
2023-01-09T21:11:34.017Z,16.13
2023-01-09T21:14:01.283Z,14.87
2023-01-09T21:16:28.648Z,14.77
2023-01-09T21:18:55.857Z,24.50
2023-01-09T21:21:24.647Z,20.57
2023-01-09T21:23:53.266Z,18.03
2023-01-09T21:26:22.563Z,17.00
2023-01-09T21:28:50.611Z,16.77
2023-01-09T21:31:19.471Z,8.83
2023-01-09T21:33:47.503Z,16.80
2023-01-09T21:36:15.126Z,12.03
2023-01-09T21:38:42.518Z,12.93
2023-01-09T21:41:28.630Z,13.13
2023-01-09T21:44:14.502Z,13.73
2023-01-09T21:46:59.976Z,10.27
2023-01-09T21:49:29.705Z,9.70
2023-01-09T21:51:56.903Z,9.47
2023-01-09T21:54:28.392Z,10.83
2023-01-09T21:56:55.521Z,9.57
2023-01-09T21:59:22.968Z,10.83
2023-01-09T22:01:51.097Z,10.37
2023-01-09T22:04:20.529Z,12.20
2023-01-09T22:06:47.735Z,7.30
2023-01-09T22:09:15.478Z,8.93
2023-01-09T22:11:43.418Z,10.27
2023-01-09T22:14:13.232Z,8.87
2023-01-09T22:16:40.450Z,14.67
2023-01-09T22:19:07.615Z,21.07
2023-01-09T22:21:34.746Z,12.40
2023-01-09T22:24:01.976Z,17.10
2023-01-09T22:26:29.969Z,13.60
2023-01-09T22:29:02.955Z,17.10
2023-01-09T22:31:30.320Z,15.47
2023-01-09T22:33:58.447Z,11.13
2023-01-09T22:36:31.389Z,24.10
2023-01-09T22:39:00.500Z,12.97
2023-01-09T22:41:29.759Z,11.93
2023-01-09T22:44:15.632Z,17.97
2023-01-09T22:46:43.099Z,13.70
2023-01-09T22:49:12.129Z,16.97
2023-01-09T22:51:39.514Z,11.70
2023-01-09T22:54:07.210Z,12.23
2023-01-09T22:56:34.404Z,11.50
2023-01-09T22:59:01.637Z,13.73
2023-01-09T23:01:32.350Z,12.63
2023-01-09T23:04:25.804Z,13.53
2023-01-09T23:06:52.962Z,13.60
2023-01-09T23:09:21.361Z,13.57
2023-01-09T23:12:11.140Z,12.47
2023-01-09T23:14:39.056Z,11.57
2023-01-09T23:17:07.117Z,14.33
2023-01-09T23:19:34.637Z,16.90
2023-01-09T23:22:02.283Z,12.87
2023-01-09T23:24:29.676Z,14.97
2023-01-09T23:26:57.316Z,15.40
2023-01-09T23:29:25.350Z,11.00
2023-01-09T23:31:53.770Z,16.10
2023-01-09T23:34:33.739Z,20.27
2023-01-09T23:37:00.948Z,17.30
2023-01-09T23:39:28.137Z,9.87
2023-01-09T23:42:13.842Z,16.13
2023-01-09T23:44:41.073Z,10.87
2023-01-09T23:47:08.260Z,18.57
2023-01-09T23:49:35.410Z,13.87
2023-01-09T23:52:05.941Z,10.97
2023-01-09T23:54:33.473Z,12.47
2023-01-09T23:57:00.702Z,12.83
2023-01-09T23:59:27.932Z,15.03
